Time;durP1;ratioP1;P1;durP2;ratioP2;P2;SDS_P1;SDS_P2;PMS_P1;PMS_P2;Temp;Humidity;BMP_temperature;BMP_pressure;BME280_temperature;BME280_humidity;BME280_pressure;Samples;Min_cycle;Max_cycle;Signal;HPM_P1;HPM_P2
2022/08/16 00:01:30;;;;;;;8.07;7.45;;;;;;;;;;5052962;28;20221;-74
2022/08/16 00:03:58;;;;;;;7.35;6.75;;;;;;;;;;5049668;28;20211;-74
2022/08/16 00:06:26;;;;;;;8.10;7.50;;;;;;;;;;5051962;28;20218;-74
2022/08/16 00:08:54;;;;;;;8.93;7.20;;;;;;;;;;5062689;28;20637;-74
2022/08/16 00:11:24;;;;;;;8.80;8.00;;;;;;;;;;5035716;28;20230;-74
2022/08/16 00:13:49;;;;;;;8.82;8.13;;;;;;;;;;5061368;28;20267;-74
2022/08/16 00:16:15;;;;;;;10.27;7.72;;;;;;;;;;5030398;28;20217;-74
2022/08/16 00:18:40;;;;;;;12.18;8.82;;;;;;;;;;5048180;28;20240;-74
2022/08/16 00:21:06;;;;;;;9.27;8.45;;;;;;;;;;5047271;28;20232;-73
2022/08/16 00:23:36;;;;;;;10.10;9.30;;;;;;;;;;5062896;28;20249;-72
2022/08/16 00:26:02;;;;;;;9.60;8.82;;;;;;;;;;5070242;28;20232;-74
2022/08/16 00:28:30;;;;;;;10.35;9.52;;;;;;;;;;5046165;28;20672;-74
2022/08/16 00:30:58;;;;;;;10.48;9.38;;;;;;;;;;5049301;28;20214;-74
2022/08/16 00:33:23;;;;;;;10.30;9.50;;;;;;;;;;5073735;28;20226;-74
2022/08/16 00:35:53;;;;;;;10.65;9.60;;;;;;;;;;5050431;28;20234;-74
2022/08/16 00:38:21;;;;;;;10.90;9.95;;;;;;;;;;5067725;28;20741;-74
2022/08/16 00:40:50;;;;;;;11.20;10.25;;;;;;;;;;5052131;28;20225;-74
2022/08/16 00:43:24;;;;;;;11.68;10.75;;;;;;;;;;5040879;28;20717;-73
2022/08/16 00:46:05;;;;;;;10.95;10.15;;;;;;;;;;5057329;28;20228;-74
2022/08/16 00:48:31;;;;;;;11.65;10.70;;;;;;;;;;5068813;28;20219;-74
2022/08/16 00:50:57;;;;;;;12.13;11.13;;;;;;;;;;5062365;28;20234;-73
2022/08/16 00:53:27;;;;;;;12.82;11.63;;;;;;;;;;5031195;28;20215;-73
2022/08/16 00:55:56;;;;;;;10.45;9.55;;;;;;;;;;5068269;28;20258;-73
2022/08/16 00:58:25;;;;;;;11.20;10.20;;;;;;;;;;5021337;28;20223;-73
2022/08/16 01:00:50;;;;;;;11.85;10.95;;;;;;;;;;5030329;28;20268;-73
2022/08/16 01:03:17;;;;;;;11.52;10.38;;;;;;;;;;5026731;28;20229;-73
2022/08/16 01:05:48;;;;;;;12.10;11.05;;;;;;;;;;5030752;28;20614;-73
2022/08/16 01:08:19;;;;;;;11.98;11.07;;;;;;;;;;5029960;28;20250;-73
2022/08/16 01:10:47;;;;;;;11.02;10.13;;;;;;;;;;5034808;28;20567;-73
2022/08/16 01:13:14;;;;;;;11.70;10.70;;;;;;;;;;5051261;28;20232;-73
2022/08/16 01:15:43;;;;;;;10.73;9.88;;;;;;;;;;5042028;28;20233;-73
2022/08/16 01:18:12;;;;;;;12.18;11.18;;;;;;;;;;5035266;28;20221;-73
2022/08/16 01:20:45;;;;;;;11.35;10.35;;;;;;;;;;5051978;28;20831;-73
2022/08/16 01:23:21;;;;;;;13.68;10.05;;;;;;;;;;5033976;28;20223;-73
2022/08/16 01:25:48;;;;;;;10.95;10.15;;;;;;;;;;5060675;28;20304;-73
2022/08/16 01:28:17;;;;;;;11.35;10.35;;;;;;;;;;5059704;28;20644;-73
2022/08/16 01:30:46;;;;;;;10.15;9.25;;;;;;;;;;5067132;28;20313;-74
2022/08/16 01:33:14;;;;;;;11.32;10.23;;;;;;;;;;5057230;28;20227;-73
2022/08/16 01:35:48;;;;;;;13.55;11.55;;;;;;;;;;5025353;28;20265;-73
2022/08/16 01:38:21;;;;;;;12.50;11.45;;;;;;;;;;5051199;28;20230;-73
2022/08/16 01:40:54;;;;;;;11.27;9.98;;;;;;;;;;5066837;28;20233;-73
2022/08/16 01:43:23;;;;;;;11.57;10.57;;;;;;;;;;5041021;28;20733;-73
2022/08/16 01:45:57;;;;;;;10.57;9.63;;;;;;;;;;5035289;28;20222;-73
2022/08/16 01:48:25;;;;;;;11.95;10.88;;;;;;;;;;5049435;28;20298;-73
2022/08/16 01:50:56;;;;;;;12.52;11.38;;;;;;;;;;5033008;28;20218;-73
2022/08/16 01:53:26;;;;;;;11.93;10.85;;;;;;;;;;5053562;28;20283;-74
2022/08/16 01:56:15;;;;;;;12.63;11.68;;;;;;;;;;5042633;28;20230;-74
2022/08/16 01:58:43;;;;;;;13.43;12.10;;;;;;;;;;5058071;28;20215;-73
2022/08/16 02:01:11;;;;;;;11.90;11.00;;;;;;;;;;5032701;28;20223;-73
2022/08/16 02:03:39;;;;;;;12.23;11.23;;;;;;;;;;5050781;28;20222;-74
2022/08/16 02:06:05;;;;;;;12.27;11.07;;;;;;;;;;5061083;28;20222;-73
2022/08/16 02:08:32;;;;;;;12.05;11.05;;;;;;;;;;5033474;28;20226;-73
2022/08/16 02:11:01;;;;;;;11.13;9.25;;;;;;;;;;5029772;28;20639;-73
2022/08/16 02:13:26;;;;;;;9.75;9.00;;;;;;;;;;5078018;28;20270;-73
2022/08/16 02:15:52;;;;;;;10.43;9.63;;;;;;;;;;5044878;28;20625;-73
2022/08/16 02:18:18;;;;;;;11.07;10.13;;;;;;;;;;5064303;28;20592;-74
2022/08/16 02:20:49;;;;;;;11.35;10.38;;;;;;;;;;5047332;28;20225;-73
2022/08/16 02:23:21;;;;;;;12.20;11.10;;;;;;;;;;5048295;28;20240;-74
2022/08/16 02:25:47;;;;;;;11.15;10.15;;;;;;;;;;5043327;28;20218;-73
2022/08/16 02:28:18;;;;;;;12.82;11.65;;;;;;;;;;5081877;28;20747;-73
2022/08/16 02:30:46;;;;;;;13.38;12.30;;;;;;;;;;5028186;28;20567;-73
2022/08/16 02:33:12;;;;;;;13.25;12.10;;;;;;;;;;5039057;28;20242;-73
2022/08/16 02:35:40;;;;;;;13.57;12.35;;;;;;;;;;5033022;28;20568;-74
2022/08/16 02:38:05;;;;;;;13.60;12.40;;;;;;;;;;5044043;28;20287;-73
2022/08/16 02:40:32;;;;;;;13.70;12.52;;;;;;;;;;5044087;28;20261;-74
2022/08/16 02:42:57;;;;;;;14.10;12.85;;;;;;;;;;5042118;28;20245;-74
2022/08/16 02:45:24;;;;;;;14.43;12.88;;;;;;;;;;5039187;28;20218;-74
2022/08/16 02:47:50;;;;;;;14.05;12.70;;;;;;;;;;5041591;28;20231;-73
2022/08/16 02:50:20;;;;;;;13.77;12.68;;;;;;;;;;5044367;28;20590;-74
2022/08/16 02:52:49;;;;;;;13.98;12.88;;;;;;;;;;5047429;28;20499;-73
2022/08/16 02:55:17;;;;;;;13.90;12.68;;;;;;;;;;5037211;28;20330;-73
2022/08/16 02:57:45;;;;;;;11.88;10.88;;;;;;;;;;5046331;28;20276;-73
2022/08/16 03:00:14;;;;;;;12.52;11.40;;;;;;;;;;5059124;28;20223;-74
2022/08/16 03:02:40;;;;;;;11.95;10.90;;;;;;;;;;5033992;28;20279;-73
2022/08/16 03:05:11;;;;;;;12.50;11.57;;;;;;;;;;5018022;28;20217;-74
2022/08/16 03:07:42;;;;;;;13.02;11.70;;;;;;;;;;5041245;28;20260;-73
2022/08/16 03:10:12;;;;;;;14.05;12.73;;;;;;;;;;5066209;28;20222;-74
2022/08/16 03:12:48;;;;;;;12.65;11.35;;;;;;;;;;5026931;28;20257;-73
2022/08/16 03:15:17;;;;;;;14.60;13.40;;;;;;;;;;5049228;28;20224;-73
2022/08/16 03:17:43;;;;;;;13.43;12.13;;;;;;;;;;5049627;28;20297;-74
2022/08/16 03:20:13;;;;;;;12.77;11.75;;;;;;;;;;5046303;28;20219;-74
2022/08/16 03:22:41;;;;;;;13.20;11.98;;;;;;;;;;5043021;28;20211;-73
2022/08/16 03:25:13;;;;;;;14.18;12.85;;;;;;;;;;5047031;28;20209;-73
2022/08/16 03:27:43;;;;;;;14.00;12.70;;;;;;;;;;5028375;28;20587;-73
2022/08/16 03:30:19;;;;;;;13.75;12.65;;;;;;;;;;5033609;28;20313;-73
2022/08/16 03:32:52;;;;;;;13.43;12.27;;;;;;;;;;5030765;28;20222;-73
2022/08/16 03:35:25;;;;;;;13.68;12.55;;;;;;;;;;5053006;28;20867;-74
2022/08/16 03:37:57;;;;;;;13.23;12.23;;;;;;;;;;5070447;28;20223;-74
2022/08/16 03:40:27;;;;;;;14.27;13.18;;;;;;;;;;5039884;28;20226;-74
2022/08/16 03:42:55;;;;;;;13.20;12.05;;;;;;;;;;5061146;28;20287;-74
2022/08/16 03:45:26;;;;;;;14.60;13.40;;;;;;;;;;5046949;28;20317;-74
2022/08/16 03:47:56;;;;;;;13.00;12.10;;;;;;;;;;5051494;28;20225;-75
2022/08/16 03:50:21;;;;;;;13.95;12.63;;;;;;;;;;5036198;28;20222;-74
2022/08/16 03:52:47;;;;;;;13.88;12.68;;;;;;;;;;5050980;28;20222;-74
2022/08/16 03:55:15;;;;;;;13.88;12.60;;;;;;;;;;5063904;28;20215;-74
2022/08/16 03:57:41;;;;;;;13.40;12.32;;;;;;;;;;5029475;28;20228;-74
2022/08/16 04:00:14;;;;;;;14.23;13.02;;;;;;;;;;5067895;28;20218;-74
2022/08/16 04:02:41;;;;;;;12.68;11.48;;;;;;;;;;5079183;28;20244;-74
2022/08/16 04:05:16;;;;;;;13.18;12.13;;;;;;;;;;5078437;28;20460;-74
2022/08/16 04:07:42;;;;;;;13.75;12.65;;;;;;;;;;5054172;28;20744;-74
2022/08/16 04:10:11;;;;;;;14.98;13.48;;;;;;;;;;5034985;28;20484;-74
2022/08/16 04:12:40;;;;;;;13.82;12.73;;;;;;;;;;5055864;28;20236;-74
2022/08/16 04:15:07;;;;;;;14.07;12.68;;;;;;;;;;5031845;28;20219;-74
2022/08/16 04:17:41;;;;;;;13.07;11.95;;;;;;;;;;5045672;28;20221;-74
2022/08/16 04:20:08;;;;;;;13.52;12.43;;;;;;;;;;5053176;28;20221;-75
2022/08/16 04:22:35;;;;;;;14.23;13.10;;;;;;;;;;5047007;28;20229;-74
2022/08/16 04:25:03;;;;;;;14.63;13.52;;;;;;;;;;5039764;28;20628;-74
2022/08/16 04:27:37;;;;;;;15.93;13.32;;;;;;;;;;5030334;28;20246;-74
2022/08/16 04:30:06;;;;;;;15.40;14.10;;;;;;;;;;5051343;28;20260;-74
2022/08/16 04:32:39;;;;;;;15.63;14.20;;;;;;;;;;5037079;28;20241;-74
2022/08/16 04:35:10;;;;;;;14.82;13.73;;;;;;;;;;5053566;28;20219;-74
2022/08/16 04:37:37;;;;;;;15.93;14.50;;;;;;;;;;5047738;28;20280;-74
2022/08/16 04:40:13;;;;;;;14.55;13.45;;;;;;;;;;5044971;28;20231;-74
2022/08/16 04:42:40;;;;;;;14.63;13.38;;;;;;;;;;5066704;28;20226;-73
2022/08/16 04:45:06;;;;;;;14.88;13.68;;;;;;;;;;5044276;28;20222;-73
2022/08/16 04:47:34;;;;;;;16.85;15.25;;;;;;;;;;5051918;28;20210;-73
2022/08/16 04:50:16;;;;;;;15.25;13.98;;;;;;;;;;5046191;28;20729;-74
2022/08/16 04:53:01;;;;;;;15.05;13.90;;;;;;;;;;5066099;28;20306;-74
2022/08/16 04:55:30;;;;;;;14.85;13.65;;;;;;;;;;5052222;28;20218;-74
2022/08/16 04:57:57;;;;;;;14.48;13.18;;;;;;;;;;5051085;28;20214;-74
2022/08/16 05:00:31;;;;;;;15.80;13.77;;;;;;;;;;5051786;28;20250;-75
2022/08/16 05:03:01;;;;;;;14.85;13.55;;;;;;;;;;5049246;28;20670;-74
2022/08/16 05:05:27;;;;;;;14.98;13.68;;;;;;;;;;5046137;28;20223;-75
2022/08/16 05:07:52;;;;;;;14.18;13.07;;;;;;;;;;5045903;28;20672;-75
2022/08/16 05:10:18;;;;;;;14.50;13.30;;;;;;;;;;5068906;28;20233;-75
2022/08/16 05:12:44;;;;;;;16.25;14.13;;;;;;;;;;5034829;28;20214;-75
2022/08/16 05:15:13;;;;;;;14.88;13.57;;;;;;;;;;5056697;28;20267;-74
2022/08/16 05:17:38;;;;;;;14.52;13.18;;;;;;;;;;5051989;28;20244;-74
2022/08/16 05:20:11;;;;;;;14.80;13.50;;;;;;;;;;5068268;28;20767;-74
2022/08/16 05:22:39;;;;;;;15.02;13.65;;;;;;;;;;5029256;28;20355;-74
2022/08/16 05:25:11;;;;;;;14.73;13.25;;;;;;;;;;5033564;28;20218;-73
2022/08/16 05:27:44;;;;;;;14.88;13.57;;;;;;;;;;5064026;28;20226;-74
2022/08/16 05:30:16;;;;;;;15.07;13.68;;;;;;;;;;5035794;28;20222;-74
2022/08/16 05:32:47;;;;;;;14.65;13.57;;;;;;;;;;5043239;28;20658;-74
2022/08/16 05:35:15;;;;;;;14.77;13.63;;;;;;;;;;5047669;28;20309;-74
2022/08/16 05:37:53;;;;;;;14.52;13.30;;;;;;;;;;5044595;28;20297;-74
2022/08/16 05:40:19;;;;;;;15.05;13.65;;;;;;;;;;5060160;28;20222;-73
2022/08/16 05:42:48;;;;;;;14.55;13.10;;;;;;;;;;5029660;28;20233;-74
2022/08/16 05:45:14;;;;;;;15.27;13.70;;;;;;;;;;5042049;28;20226;-73
2022/08/16 05:47:41;;;;;;;14.98;12.55;;;;;;;;;;5034779;28;20225;-74
2022/08/16 05:50:10;;;;;;;15.50;14.00;;;;;;;;;;5032305;28;20240;-74
2022/08/16 05:52:36;;;;;;;15.73;14.30;;;;;;;;;;5025971;28;20273;-74
2022/08/16 05:55:07;;;;;;;18.45;13.73;;;;;;;;;;5047521;28;20280;-74
2022/08/16 05:57:36;;;;;;;14.32;12.95;;;;;;;;;;5032726;28;20340;-74
2022/08/16 06:00:08;;;;;;;13.88;12.77;;;;;;;;;;5044401;28;20357;-74
2022/08/16 06:02:37;;;;;;;13.88;12.63;;;;;;;;;;5058781;28;20218;-74
2022/08/16 06:05:07;;;;;;;13.20;12.18;;;;;;;;;;5050417;28;20206;-73
2022/08/16 06:07:34;;;;;;;13.30;11.88;;;;;;;;;;5061028;28;20226;-74
2022/08/16 06:10:06;;;;;;;12.70;11.45;;;;;;;;;;5030753;28;20225;-74
2022/08/16 06:12:36;;;;;;;12.55;11.35;;;;;;;;;;5065060;28;20696;-74
2022/08/16 06:15:07;;;;;;;11.85;10.75;;;;;;;;;;5046311;28;20761;-74
2022/08/16 06:17:34;;;;;;;10.90;9.93;;;;;;;;;;5052646;28;20230;-74
2022/08/16 06:20:00;;;;;;;11.00;10.10;;;;;;;;;;5049644;28;20222;-74
2022/08/16 06:22:26;;;;;;;12.73;10.30;;;;;;;;;;5024806;28;20218;-73
2022/08/16 06:24:54;;;;;;;10.73;9.63;;;;;;;;;;5047812;28;20219;-74
2022/08/16 06:27:21;;;;;;;10.40;9.50;;;;;;;;;;5042922;28;20294;-74
2022/08/16 06:29:47;;;;;;;10.00;9.20;;;;;;;;;;5058918;28;20222;-74
2022/08/16 06:32:15;;;;;;;9.90;9.10;;;;;;;;;;5059113;28;20230;-74
2022/08/16 06:34:40;;;;;;;9.65;8.77;;;;;;;;;;5057490;28;20703;-75
2022/08/16 06:37:09;;;;;;;10.13;9.10;;;;;;;;;;5057265;28;20222;-74
2022/08/16 06:39:37;;;;;;;9.88;8.95;;;;;;;;;;5067167;28;20218;-74
2022/08/16 06:42:06;;;;;;;8.88;8.05;;;;;;;;;;5065008;28;20830;-74
2022/08/16 06:44:51;;;;;;;9.23;8.32;;;;;;;;;;5057253;28;20224;-74
2022/08/16 06:47:37;;;;;;;8.98;8.30;;;;;;;;;;5075561;28;20275;-74
2022/08/16 06:50:04;;;;;;;9.15;8.23;;;;;;;;;;5082574;28;20245;-74
2022/08/16 06:52:39;;;;;;;8.93;8.23;;;;;;;;;;5040879;28;20707;-74
2022/08/16 06:55:10;;;;;;;9.65;8.75;;;;;;;;;;5077952;28;20226;-74
2022/08/16 06:57:41;;;;;;;7.65;7.03;;;;;;;;;;5059386;28;20222;-74
2022/08/16 07:00:12;;;;;;;8.07;7.32;;;;;;;;;;5074151;28;20226;-74
2022/08/16 07:02:42;;;;;;;9.18;8.00;;;;;;;;;;5062429;28;20716;-74
2022/08/16 07:05:08;;;;;;;9.18;7.78;;;;;;;;;;5026134;28;20213;-73
2022/08/16 07:07:36;;;;;;;9.25;8.45;;;;;;;;;;5073517;28;20648;-74
2022/08/16 07:10:06;;;;;;;8.82;8.05;;;;;;;;;;5060783;28;20222;-74
2022/08/16 07:12:32;;;;;;;9.05;8.30;;;;;;;;;;5064057;28;20229;-74
2022/08/16 07:14:59;;;;;;;9.38;8.68;;;;;;;;;;5065538;28;20218;-75
2022/08/16 07:17:26;;;;;;;7.65;7.05;;;;;;;;;;5065668;28;20591;-73
2022/08/16 07:19:56;;;;;;;8.85;8.15;;;;;;;;;;5046310;28;20209;-74
2022/08/16 07:22:30;;;;;;;7.97;7.38;;;;;;;;;;5068430;28;20222;-74
2022/08/16 07:25:00;;;;;;;7.95;7.35;;;;;;;;;;5078970;28;20775;-74
2022/08/16 07:27:28;;;;;;;8.38;7.75;;;;;;;;;;5067289;28;20347;-74
2022/08/16 07:29:59;;;;;;;8.15;7.20;;;;;;;;;;5038203;28;20218;-73
2022/08/16 07:32:27;;;;;;;7.85;7.05;;;;;;;;;;5030972;28;20783;-73
2022/08/16 07:34:53;;;;;;;7.78;7.07;;;;;;;;;;5064676;28;20224;-74
2022/08/16 07:37:21;;;;;;;7.75;7.07;;;;;;;;;;5049559;28;20223;-74
2022/08/16 07:40:06;;;;;;;7.03;6.43;;;;;;;;;;5054180;28;20695;-73
2022/08/16 07:42:32;;;;;;;7.28;6.55;;;;;;;;;;5051787;28;20223;-74
2022/08/16 07:45:03;;;;;;;7.35;6.65;;;;;;;;;;5046349;28;20768;-74
2022/08/16 07:47:31;;;;;;;7.97;7.15;;;;;;;;;;5033359;28;20253;-74
2022/08/16 07:49:56;;;;;;;7.30;6.70;;;;;;;;;;5039623;28;20340;-74
2022/08/16 07:52:24;;;;;;;6.90;6.40;;;;;;;;;;5060065;28;20238;-74
2022/08/16 07:54:52;;;;;;;7.22;6.63;;;;;;;;;;5046702;28;20232;-74
2022/08/16 07:57:24;;;;;;;6.70;6.15;;;;;;;;;;5058713;28;20404;-74
2022/08/16 07:59:51;;;;;;;6.43;5.90;;;;;;;;;;5041655;28;20431;-74
2022/08/16 08:02:24;;;;;;;6.82;6.03;;;;;;;;;;5044264;28;20215;-74
2022/08/16 08:04:55;;;;;;;7.22;6.70;;;;;;;;;;5043183;28;20598;-74
2022/08/16 08:07:21;;;;;;;7.03;6.20;;;;;;;;;;5043834;28;20227;-74
2022/08/16 08:09:52;;;;;;;7.22;6.70;;;;;;;;;;5056911;28;20238;-74
2022/08/16 08:12:22;;;;;;;6.53;6.03;;;;;;;;;;5049987;28;20234;-73
2022/08/16 08:14:48;;;;;;;6.30;5.80;;;;;;;;;;5069764;28;20250;-74
2022/08/16 08:17:14;;;;;;;7.05;6.55;;;;;;;;;;5048187;28;20261;-74
2022/08/16 08:19:40;;;;;;;6.47;5.97;;;;;;;;;;5034783;28;20214;-74
2022/08/16 08:22:08;;;;;;;6.50;5.90;;;;;;;;;;5068637;28;20300;-75
2022/08/16 08:24:45;;;;;;;7.32;5.60;;;;;;;;;;5054187;28;20214;-75
2022/08/16 08:27:12;;;;;;;6.85;6.35;;;;;;;;;;5079753;28;20254;-74
2022/08/16 08:29:45;;;;;;;8.43;6.57;;;;;;;;;;5050665;28;20264;-75
2022/08/16 08:32:12;;;;;;;6.20;5.70;;;;;;;;;;5078633;28;20226;-74
2022/08/16 08:34:40;;;;;;;6.78;6.18;;;;;;;;;;5068763;28;20605;-74
2022/08/16 08:37:06;;;;;;;7.28;6.57;;;;;;;;;;5079784;28;20792;-75
2022/08/16 08:39:37;;;;;;;6.22;5.70;;;;;;;;;;5048931;28;20616;-73
2022/08/16 08:42:04;;;;;;;7.63;6.93;;;;;;;;;;5031024;28;20221;-75
2022/08/16 08:44:35;;;;;;;5.50;5.03;;;;;;;;;;5042890;28;20295;-74
2022/08/16 08:47:09;;;;;;;6.25;5.65;;;;;;;;;;5045372;28;20249;-75
2022/08/16 08:49:35;;;;;;;6.88;5.65;;;;;;;;;;5033429;28;20222;-75
2022/08/16 08:52:10;;;;;;;6.55;5.95;;;;;;;;;;5048712;28;20310;-76
2022/08/16 08:54:38;;;;;;;6.00;5.50;;;;;;;;;;5068209;28;20592;-75
2022/08/16 08:57:07;;;;;;;6.45;5.60;;;;;;;;;;5054191;28;20228;-75
2022/08/16 08:59:38;;;;;;;6.10;5.57;;;;;;;;;;5046884;28;20218;-74
2022/08/16 09:02:07;;;;;;;6.85;6.25;;;;;;;;;;5065450;28;20283;-75
2022/08/16 09:04:55;;;;;;;5.93;5.45;;;;;;;;;;5050948;28;20231;-75
2022/08/16 09:07:21;;;;;;;5.38;4.97;;;;;;;;;;5076047;28;20291;-75
2022/08/16 09:09:49;;;;;;;4.93;4.57;;;;;;;;;;5059802;28;20218;-74
2022/08/16 09:12:17;;;;;;;4.97;4.57;;;;;;;;;;5092753;28;20309;-74
2022/08/16 09:14:53;;;;;;;4.30;4.00;;;;;;;;;;5053867;28;20305;-75
2022/08/16 09:17:27;;;;;;;4.20;3.90;;;;;;;;;;5067607;28;20250;-75
2022/08/16 09:19:54;;;;;;;4.53;4.10;;;;;;;;;;5062074;28;20214;-75
2022/08/16 09:22:22;;;;;;;4.28;3.90;;;;;;;;;;5062320;28;20368;-75
2022/08/16 09:24:50;;;;;;;5.30;4.15;;;;;;;;;;5086618;28;20222;-75
2022/08/16 09:27:18;;;;;;;4.97;3.85;;;;;;;;;;5051094;28;20267;-74
2022/08/16 09:29:46;;;;;;;4.32;3.80;;;;;;;;;;5053008;28;20214;-74
2022/08/16 09:32:17;;;;;;;4.05;3.65;;;;;;;;;;5062485;28;20703;-73
2022/08/16 09:34:43;;;;;;;3.58;3.28;;;;;;;;;;5060513;28;20221;-76
2022/08/16 09:37:08;;;;;;;3.83;3.42;;;;;;;;;;5074761;28;20258;-75
2022/08/16 09:39:34;;;;;;;4.05;3.65;;;;;;;;;;5077528;28;20713;-73
2022/08/16 09:42:02;;;;;;;5.75;2.90;;;;;;;;;;5078364;28;20210;-75
2022/08/16 09:44:30;;;;;;;3.60;3.30;;;;;;;;;;5061519;28;20249;-74
2022/08/16 09:46:57;;;;;;;3.13;2.83;;;;;;;;;;5046445;28;20249;-74
2022/08/16 09:49:25;;;;;;;3.70;3.40;;;;;;;;;;5058429;28;20230;-74
2022/08/16 09:51:55;;;;;;;4.18;3.72;;;;;;;;;;5073857;28;20229;-74
2022/08/16 09:54:24;;;;;;;4.13;3.75;;;;;;;;;;5060945;28;20226;-74
2022/08/16 09:56:50;;;;;;;4.15;3.80;;;;;;;;;;5073418;28;20218;-75
2022/08/16 09:59:16;;;;;;;5.40;4.55;;;;;;;;;;5048327;28;20218;-75
2022/08/16 10:01:46;;;;;;;4.60;4.20;;;;;;;;;;5048395;28;20873;-75
2022/08/16 10:04:14;;;;;;;6.93;4.75;;;;;;;;;;5059152;28;20759;-75
2022/08/16 10:06:44;;;;;;;5.93;5.35;;;;;;;;;;5068235;28;20214;-75
2022/08/16 10:09:12;;;;;;;5.20;4.70;;;;;;;;;;5066070;28;20254;-76
2022/08/16 10:14:29;;;;;;;4.60;4.20;;;;;;;;;;5062647;28;20232;-76
2022/08/16 10:17:00;;;;;;;4.90;4.40;;;;;;;;;;5056080;28;20214;-76
2022/08/16 10:19:29;;;;;;;4.60;4.22;;;;;;;;;;5056969;28;20219;-75
2022/08/16 10:21:55;;;;;;;5.15;4.65;;;;;;;;;;5040819;28;20603;-75
2022/08/16 10:24:21;;;;;;;5.03;4.63;;;;;;;;;;5077783;28;20222;-75
2022/08/16 10:26:49;;;;;;;4.82;4.43;;;;;;;;;;5047266;28;20900;-75
2022/08/16 10:29:17;;;;;;;4.40;4.10;;;;;;;;;;5065612;28;20704;-75
2022/08/16 10:31:42;;;;;;;4.55;3.83;;;;;;;;;;5067512;28;20249;-74
2022/08/16 10:34:11;;;;;;;4.00;3.40;;;;;;;;;;5073746;28;20235;-74
2022/08/16 10:36:36;;;;;;;4.60;4.20;;;;;;;;;;5036105;28;20229;-74
2022/08/16 10:39:03;;;;;;;5.18;4.25;;;;;;;;;;5039347;28;20567;-74
2022/08/16 10:41:33;;;;;;;4.40;3.35;;;;;;;;;;5047976;28;20290;-75
2022/08/16 10:43:59;;;;;;;4.35;3.95;;;;;;;;;;5073671;28;20841;-74
2022/08/16 10:46:26;;;;;;;5.53;3.70;;;;;;;;;;5049345;28;20217;-75
2022/08/16 10:48:52;;;;;;;5.00;4.40;;;;;;;;;;5044030;28;20211;-75
2022/08/16 10:51:20;;;;;;;5.95;4.15;;;;;;;;;;5041255;28;20607;-74
2022/08/16 10:53:45;;;;;;;4.40;3.97;;;;;;;;;;5072666;28;20225;-74
2022/08/16 10:56:11;;;;;;;3.83;3.53;;;;;;;;;;5054494;28;20592;-73
2022/08/16 10:58:40;;;;;;;4.07;3.38;;;;;;;;;;5056615;28;20226;-73
2022/08/16 11:01:14;;;;;;;4.68;4.20;;;;;;;;;;5064893;28;20230;-74
2022/08/16 11:03:40;;;;;;;4.22;3.83;;;;;;;;;;5040755;28;20310;-73
2022/08/16 11:06:06;;;;;;;5.03;3.95;;;;;;;;;;5072656;28;20592;-74
2022/08/16 11:08:34;;;;;;;4.50;4.13;;;;;;;;;;5061369;28;20587;-74
2022/08/16 11:11:00;;;;;;;4.22;3.88;;;;;;;;;;5040323;28;20230;-74
2022/08/16 11:13:28;;;;;;;3.83;3.47;;;;;;;;;;5073108;28;20249;-74
2022/08/16 11:15:56;;;;;;;5.13;3.95;;;;;;;;;;5071527;28;20672;-74
2022/08/16 11:18:21;;;;;;;2.95;2.75;;;;;;;;;;5045456;28;20246;-74
2022/08/16 11:20:52;;;;;;;4.18;3.47;;;;;;;;;;5055148;28;20249;-75
2022/08/16 11:23:20;;;;;;;3.53;3.17;;;;;;;;;;5055443;28;20234;-74
2022/08/16 11:25:48;;;;;;;3.90;3.50;;;;;;;;;;5084030;28;20246;-75
2022/08/16 11:28:14;;;;;;;4.25;3.75;;;;;;;;;;5077633;28;20230;-74
2022/08/16 11:30:42;;;;;;;4.00;3.40;;;;;;;;;;5059109;28;21022;-75
2022/08/16 11:33:10;;;;;;;3.95;3.55;;;;;;;;;;5070448;28;20222;-74
2022/08/16 11:35:38;;;;;;;3.95;3.15;;;;;;;;;;5056502;28;20225;-75
2022/08/16 11:38:13;;;;;;;3.70;3.40;;;;;;;;;;5027303;28;20230;-75
2022/08/16 11:40:49;;;;;;;3.83;3.20;;;;;;;;;;5057488;28;20283;-76
2022/08/16 11:43:19;;;;;;;4.25;3.30;;;;;;;;;;5057567;28;20316;-75
2022/08/16 11:45:50;;;;;;;4.13;3.10;;;;;;;;;;5063732;28;20222;-74
2022/08/16 11:48:16;;;;;;;3.63;3.20;;;;;;;;;;5051779;28;20222;-74
2022/08/16 11:50:42;;;;;;;2.83;2.63;;;;;;;;;;5043624;28;20214;-74
2022/08/16 11:53:08;;;;;;;3.20;2.80;;;;;;;;;;5041274;28;20804;-73
2022/08/16 11:55:34;;;;;;;3.38;3.13;;;;;;;;;;5065291;28;20260;-75
2022/08/16 11:58:00;;;;;;;3.30;3.00;;;;;;;;;;5059115;28;20307;-74
2022/08/16 12:00:29;;;;;;;3.47;2.80;;;;;;;;;;5039981;28;20222;-74
2022/08/16 12:02:54;;;;;;;3.35;2.63;;;;;;;;;;5035987;28;20268;-73
2022/08/16 12:05:20;;;;;;;2.42;2.22;;;;;;;;;;5082641;28;20226;-73
2022/08/16 12:07:45;;;;;;;3.80;2.58;;;;;;;;;;5059650;28;20229;-72
2022/08/16 12:10:13;;;;;;;2.80;2.60;;;;;;;;;;5057270;28;20252;-74
2022/08/16 12:12:44;;;;;;;3.63;2.88;;;;;;;;;;5053347;28;20226;-75
2022/08/16 12:15:13;;;;;;;2.50;2.30;;;;;;;;;;5076054;28;20836;-73
2022/08/16 12:17:39;;;;;;;4.20;2.70;;;;;;;;;;5048288;28;20218;-73
2022/08/16 12:20:10;;;;;;;2.95;2.75;;;;;;;;;;5050335;28;20640;-75
2022/08/16 12:22:36;;;;;;;3.30;3.00;;;;;;;;;;5053336;28;20319;-74
2022/08/16 12:25:06;;;;;;;3.40;2.72;;;;;;;;;;5059289;28;20230;-75
2022/08/16 12:27:35;;;;;;;3.25;2.83;;;;;;;;;;5051998;28;20751;-75
2022/08/16 12:30:03;;;;;;;3.00;2.58;;;;;;;;;;5051979;28;20222;-75
2022/08/16 12:32:30;;;;;;;2.55;2.42;;;;;;;;;;5044751;28;20218;-75
2022/08/16 12:34:56;;;;;;;4.13;2.60;;;;;;;;;;5066005;28;20225;-74
2022/08/16 12:37:22;;;;;;;3.03;2.72;;;;;;;;;;5073988;28;20779;-75
2022/08/16 12:39:47;;;;;;;4.05;2.90;;;;;;;;;;5062652;28;20790;-75
2022/08/16 12:42:13;;;;;;;2.95;2.75;;;;;;;;;;5077711;28;20902;-74
2022/08/16 12:44:41;;;;;;;3.55;2.90;;;;;;;;;;5076448;28;20865;-76
2022/08/16 12:49:53;;;;;;;2.92;2.65;;;;;;;;;;5066170;28;20221;-75
2022/08/16 12:52:21;;;;;;;3.03;2.60;;;;;;;;;;5067513;28;20234;-72
2022/08/16 12:54:47;;;;;;;3.10;2.80;;;;;;;;;;5058805;28;20225;-74
2022/08/16 12:57:12;;;;;;;3.30;2.95;;;;;;;;;;5079584;28;20215;-74
2022/08/16 12:59:41;;;;;;;2.78;2.50;;;;;;;;;;5083205;28;20301;-75
2022/08/16 13:02:07;;;;;;;4.93;2.35;;;;;;;;;;5066883;28;20906;-73
2022/08/16 13:04:36;;;;;;;5.32;2.70;;;;;;;;;;5054970;28;20218;-75
2022/08/16 13:07:06;;;;;;;4.50;2.40;;;;;;;;;;5070588;28;20218;-74
2022/08/16 13:09:33;;;;;;;2.75;2.45;;;;;;;;;;5060508;28;20222;-74
2022/08/16 13:12:14;;;;;;;2.85;2.30;;;;;;;;;;5047751;28;20226;-75
2022/08/16 13:14:45;;;;;;;3.10;2.80;;;;;;;;;;5066229;28;20881;-74
2022/08/16 13:17:18;;;;;;;2.78;2.58;;;;;;;;;;5066922;28;20226;-73
2022/08/16 13:19:44;;;;;;;4.47;2.75;;;;;;;;;;5042578;28;20218;-74
2022/08/16 13:22:09;;;;;;;4.70;2.50;;;;;;;;;;5057828;28;20217;-75
2022/08/16 13:24:35;;;;;;;2.90;2.60;;;;;;;;;;5059950;28;20811;-74
2022/08/16 13:27:00;;;;;;;2.58;2.38;;;;;;;;;;5066802;28;20218;-74
2022/08/16 13:29:28;;;;;;;2.88;2.67;;;;;;;;;;5066467;28;20219;-76
2022/08/16 13:31:56;;;;;;;3.08;2.80;;;;;;;;;;5066922;28;20215;-74
2022/08/16 13:34:25;;;;;;;2.88;2.50;;;;;;;;;;5084723;28;20319;-73
2022/08/16 13:36:52;;;;;;;3.22;2.85;;;;;;;;;;5077821;28;20648;-74
2022/08/16 13:39:22;;;;;;;3.05;2.75;;;;;;;;;;5075679;28;20218;-73
2022/08/16 13:41:49;;;;;;;3.30;3.00;;;;;;;;;;5061371;28;20260;-72
2022/08/16 13:44:17;;;;;;;2.90;2.60;;;;;;;;;;5057528;28;20267;-74
2022/08/16 13:46:46;;;;;;;3.38;2.97;;;;;;;;;;5084079;28;20777;-74
2022/08/16 13:49:12;;;;;;;3.42;3.13;;;;;;;;;;5067439;28;20222;-75
2022/08/16 13:51:40;;;;;;;3.40;3.10;;;;;;;;;;5076666;28;20222;-74
2022/08/16 13:54:10;;;;;;;5.18;3.20;;;;;;;;;;5041603;28;20272;-74
2022/08/16 13:56:38;;;;;;;3.15;2.95;;;;;;;;;;5076149;28;20218;-75
2022/08/16 13:59:06;;;;;;;2.92;2.72;;;;;;;;;;5077968;28;20233;-73
2022/08/16 14:01:36;;;;;;;3.08;2.88;;;;;;;;;;5044060;28;20226;-75
2022/08/16 14:04:11;;;;;;;2.60;2.40;;;;;;;;;;5061425;28;20255;-74
2022/08/16 14:06:39;;;;;;;4.22;2.40;;;;;;;;;;5065210;28;20222;-74
2022/08/16 14:09:07;;;;;;;3.13;2.60;;;;;;;;;;5078273;28;20367;-75
2022/08/16 14:11:33;;;;;;;2.90;2.70;;;;;;;;;;5058744;28;20336;-75
2022/08/16 14:13:58;;;;;;;4.05;2.90;;;;;;;;;;5061936;28;20767;-74
2022/08/16 14:16:24;;;;;;;2.90;2.65;;;;;;;;;;5077948;28;20229;-75
2022/08/16 14:18:51;;;;;;;3.20;2.80;;;;;;;;;;5077153;28;20215;-73
2022/08/16 14:21:16;;;;;;;2.70;2.53;;;;;;;;;;5076084;28;20257;-74
2022/08/16 14:23:42;;;;;;;3.13;2.83;;;;;;;;;;5055360;28;20218;-74
2022/08/16 14:26:08;;;;;;;4.70;3.05;;;;;;;;;;5073531;28;20691;-75
2022/08/16 14:28:36;;;;;;;3.40;3.10;;;;;;;;;;5076049;28;20222;-75
2022/08/16 14:31:06;;;;;;;3.00;2.70;;;;;;;;;;5072757;28;20606;-74
2022/08/16 14:33:34;;;;;;;2.83;2.63;;;;;;;;;;5072400;28;20230;-74
2022/08/16 14:36:00;;;;;;;2.95;2.72;;;;;;;;;;5066594;28;20222;-74
2022/08/16 14:38:25;;;;;;;4.13;3.00;;;;;;;;;;5041907;28;20218;-74
2022/08/16 14:40:53;;;;;;;3.30;3.10;;;;;;;;;;5067256;28;20230;-75
2022/08/16 14:43:21;;;;;;;3.75;3.10;;;;;;;;;;5066830;28;20279;-75
2022/08/16 14:45:49;;;;;;;5.68;3.25;;;;;;;;;;5066879;28;20223;-75
2022/08/16 14:48:18;;;;;;;4.50;3.17;;;;;;;;;;5076046;28;20230;-74